sensor_id;sensor_type;location;lat;lon;timestamp;temperature;humidity
20155;DHT22;10238;49.556;10.956;2022-11-15T00:00:27;3.40;99.90
20155;DHT22;10238;49.556;10.956;2022-11-15T00:03:15;3.30;99.90
20155;DHT22;10238;49.556;10.956;2022-11-15T00:06:04;3.30;99.90
20155;DHT22;10238;49.556;10.956;2022-11-15T00:08:57;3.30;99.90
20155;DHT22;10238;49.556;10.956;2022-11-15T00:16:48;3.30;99.90
20155;DHT22;10238;49.556;10.956;2022-11-15T00:19:37;3.20;99.90
20155;DHT22;10238;49.556;10.956;2022-11-15T00:22:31;3.20;99.90
20155;DHT22;10238;49.556;10.956;2022-11-15T00:25:20;3.20;99.90
20155;DHT22;10238;49.556;10.956;2022-11-15T00:28:08;3.20;99.90
20155;DHT22;10238;49.556;10.956;2022-11-15T00:31:00;3.10;99.90
20155;DHT22;10238;49.556;10.956;2022-11-15T00:33:49;3.10;99.90
20155;DHT22;10238;49.556;10.956;2022-11-15T00:36:45;3.10;99.90
20155;DHT22;10238;49.556;10.956;2022-11-15T00:39:33;3.10;99.90
20155;DHT22;10238;49.556;10.956;2022-11-15T00:42:21;3.10;99.90
20155;DHT22;10238;49.556;10.956;2022-11-15T00:45:09;3.10;99.90
20155;DHT22;10238;49.556;10.956;2022-11-15T00:47:57;3.00;99.90
20155;DHT22;10238;49.556;10.956;2022-11-15T00:50:44;3.00;99.90
20155;DHT22;10238;49.556;10.956;2022-11-15T00:53:32;3.00;99.90
20155;DHT22;10238;49.556;10.956;2022-11-15T00:56:20;3.00;99.90
20155;DHT22;10238;49.556;10.956;2022-11-15T00:59:08;3.00;99.90
20155;DHT22;10238;49.556;10.956;2022-11-15T01:01:56;3.00;99.90
20155;DHT22;10238;49.556;10.956;2022-11-15T01:04:43;2.90;99.90
20155;DHT22;10238;49.556;10.956;2022-11-15T01:07:31;2.90;99.90
20155;DHT22;10238;49.556;10.956;2022-11-15T01:10:19;2.90;99.90
20155;DHT22;10238;49.556;10.956;2022-11-15T01:13:06;2.90;99.90
20155;DHT22;10238;49.556;10.956;2022-11-15T01:15:56;2.80;99.90
20155;DHT22;10238;49.556;10.956;2022-11-15T01:18:46;2.90;99.90
20155;DHT22;10238;49.556;10.956;2022-11-15T01:21:34;2.80;99.90
20155;DHT22;10238;49.556;10.956;2022-11-15T01:24:21;2.80;99.90
20155;DHT22;10238;49.556;10.956;2022-11-15T01:27:09;2.80;99.90
20155;DHT22;10238;49.556;10.956;2022-11-15T01:29:57;2.80;99.90
20155;DHT22;10238;49.556;10.956;2022-11-15T01:32:45;2.80;99.90
20155;DHT22;10238;49.556;10.956;2022-11-15T01:35:33;2.80;99.90
20155;DHT22;10238;49.556;10.956;2022-11-15T01:38:25;2.70;99.90
20155;DHT22;10238;49.556;10.956;2022-11-15T01:41:18;2.70;99.90
20155;DHT22;10238;49.556;10.956;2022-11-15T01:44:37;2.70;99.90
20155;DHT22;10238;49.556;10.956;2022-11-15T01:47:29;2.70;99.90
20155;DHT22;10238;49.556;10.956;2022-11-15T01:50:24;2.60;99.90
20155;DHT22;10238;49.556;10.956;2022-11-15T01:53:15;2.60;99.90
20155;DHT22;10238;49.556;10.956;2022-11-15T01:56:06;2.60;99.90
20155;DHT22;10238;49.556;10.956;2022-11-15T01:58:57;2.60;99.90
20155;DHT22;10238;49.556;10.956;2022-11-15T02:01:48;2.60;99.90
20155;DHT22;10238;49.556;10.956;2022-11-15T02:04:40;2.60;99.90
20155;DHT22;10238;49.556;10.956;2022-11-15T02:07:31;2.60;99.90
20155;DHT22;10238;49.556;10.956;2022-11-15T02:10:23;2.60;99.90
20155;DHT22;10238;49.556;10.956;2022-11-15T02:13:11;2.50;99.90
20155;DHT22;10238;49.556;10.956;2022-11-15T02:16:05;2.50;99.90
20155;DHT22;10238;49.556;10.956;2022-11-15T02:19:02;2.50;99.90
20155;DHT22;10238;49.556;10.956;2022-11-15T02:22:10;2.50;99.90
20155;DHT22;10238;49.556;10.956;2022-11-15T02:25:29;2.50;99.90
20155;DHT22;10238;49.556;10.956;2022-11-15T02:28:41;2.40;99.90
20155;DHT22;10238;49.556;10.956;2022-11-15T02:31:41;2.50;99.90
20155;DHT22;10238;49.556;10.956;2022-11-15T02:34:43;2.40;99.90
20155;DHT22;10238;49.556;10.956;2022-11-15T02:37:47;2.40;99.90
20155;DHT22;10238;49.556;10.956;2022-11-15T02:40:56;2.40;99.90
20155;DHT22;10238;49.556;10.956;2022-11-15T02:43:49;2.40;99.90
20155;DHT22;10238;49.556;10.956;2022-11-15T02:46:45;2.40;99.90
20155;DHT22;10238;49.556;10.956;2022-11-15T02:49:59;2.40;99.90
20155;DHT22;10238;49.556;10.956;2022-11-15T02:52:59;2.30;99.90
20155;DHT22;10238;49.556;10.956;2022-11-15T02:55:49;2.30;99.90
20155;DHT22;10238;49.556;10.956;2022-11-15T02:58:51;2.30;99.90
20155;DHT22;10238;49.556;10.956;2022-11-15T03:02:08;2.30;99.90
20155;DHT22;10238;49.556;10.956;2022-11-15T03:05:17;2.30;99.90
20155;DHT22;10238;49.556;10.956;2022-11-15T03:08:17;2.20;99.90
20155;DHT22;10238;49.556;10.956;2022-11-15T03:11:15;2.30;99.90
20155;DHT22;10238;49.556;10.956;2022-11-15T03:14:13;2.20;99.90
20155;DHT22;10238;49.556;10.956;2022-11-15T03:17:12;2.20;99.90
20155;DHT22;10238;49.556;10.956;2022-11-15T03:20:08;2.20;99.90
20155;DHT22;10238;49.556;10.956;2022-11-15T03:23:00;2.20;99.90
20155;DHT22;10238;49.556;10.956;2022-11-15T03:25:52;2.20;99.90
20155;DHT22;10238;49.556;10.956;2022-11-15T03:28:45;2.10;99.90
20155;DHT22;10238;49.556;10.956;2022-11-15T03:31:41;2.10;99.90
20155;DHT22;10238;49.556;10.956;2022-11-15T03:34:41;2.10;99.90
20155;DHT22;10238;49.556;10.956;2022-11-15T03:37:34;2.10;99.90
20155;DHT22;10238;49.556;10.956;2022-11-15T03:40:30;2.10;99.90
20155;DHT22;10238;49.556;10.956;2022-11-15T03:43:30;2.00;99.90
20155;DHT22;10238;49.556;10.956;2022-11-15T03:46:26;2.00;99.90
20155;DHT22;10238;49.556;10.956;2022-11-15T03:49:24;2.00;99.90
20155;DHT22;10238;49.556;10.956;2022-11-15T03:52:19;2.00;99.90
20155;DHT22;10238;49.556;10.956;2022-11-15T03:55:11;1.90;99.90
20155;DHT22;10238;49.556;10.956;2022-11-15T03:58:02;2.00;99.90
20155;DHT22;10238;49.556;10.956;2022-11-15T04:00:49;2.00;99.90
20155;DHT22;10238;49.556;10.956;2022-11-15T04:03:37;2.00;99.90
20155;DHT22;10238;49.556;10.956;2022-11-15T04:06:24;2.00;99.90
20155;DHT22;10238;49.556;10.956;2022-11-15T04:09:13;1.90;99.90
20155;DHT22;10238;49.556;10.956;2022-11-15T04:12:01;1.90;99.90
20155;DHT22;10238;49.556;10.956;2022-11-15T04:14:48;1.90;99.90
20155;DHT22;10238;49.556;10.956;2022-11-15T04:17:54;1.90;99.90
20155;DHT22;10238;49.556;10.956;2022-11-15T04:20:43;1.90;99.90
20155;DHT22;10238;49.556;10.956;2022-11-15T04:23:48;1.90;99.90
20155;DHT22;10238;49.556;10.956;2022-11-15T04:26:54;1.90;99.90
20155;DHT22;10238;49.556;10.956;2022-11-15T04:29:42;1.90;99.90
20155;DHT22;10238;49.556;10.956;2022-11-15T04:32:29;1.90;99.90
20155;DHT22;10238;49.556;10.956;2022-11-15T04:35:17;1.90;99.90
20155;DHT22;10238;49.556;10.956;2022-11-15T04:38:06;1.90;99.90
20155;DHT22;10238;49.556;10.956;2022-11-15T04:40:55;1.90;99.90
20155;DHT22;10238;49.556;10.956;2022-11-15T04:43:44;1.90;99.90
20155;DHT22;10238;49.556;10.956;2022-11-15T04:46:32;1.90;99.90
20155;DHT22;10238;49.556;10.956;2022-11-15T04:49:20;1.90;99.90
20155;DHT22;10238;49.556;10.956;2022-11-15T04:52:07;1.90;99.90
20155;DHT22;10238;49.556;10.956;2022-11-15T04:54:54;1.80;99.90
20155;DHT22;10238;49.556;10.956;2022-11-15T04:57:42;1.80;99.90
20155;DHT22;10238;49.556;10.956;2022-11-15T05:00:31;1.80;99.90
20155;DHT22;10238;49.556;10.956;2022-11-15T05:03:18;1.80;99.90
20155;DHT22;10238;49.556;10.956;2022-11-15T05:06:23;1.80;99.90
20155;DHT22;10238;49.556;10.956;2022-11-15T05:09:11;1.80;99.90
20155;DHT22;10238;49.556;10.956;2022-11-15T05:11:59;1.70;99.90
20155;DHT22;10238;49.556;10.956;2022-11-15T05:14:47;1.70;99.90
20155;DHT22;10238;49.556;10.956;2022-11-15T05:17:36;1.70;99.90
20155;DHT22;10238;49.556;10.956;2022-11-15T05:20:23;1.70;99.90
20155;DHT22;10238;49.556;10.956;2022-11-15T05:23:11;1.70;99.90
20155;DHT22;10238;49.556;10.956;2022-11-15T05:25:58;1.70;99.90
20155;DHT22;10238;49.556;10.956;2022-11-15T05:28:55;1.70;99.90
20155;DHT22;10238;49.556;10.956;2022-11-15T05:31:43;1.60;99.90
20155;DHT22;10238;49.556;10.956;2022-11-15T05:34:32;1.60;99.90
20155;DHT22;10238;49.556;10.956;2022-11-15T05:37:20;1.60;99.90
20155;DHT22;10238;49.556;10.956;2022-11-15T05:40:08;1.60;99.90
20155;DHT22;10238;49.556;10.956;2022-11-15T05:42:57;1.60;99.90
20155;DHT22;10238;49.556;10.956;2022-11-15T05:45:47;1.70;99.90
20155;DHT22;10238;49.556;10.956;2022-11-15T05:48:36;1.50;99.90
20155;DHT22;10238;49.556;10.956;2022-11-15T05:51:29;1.50;99.90
20155;DHT22;10238;49.556;10.956;2022-11-15T05:54:17;1.50;99.90
20155;DHT22;10238;49.556;10.956;2022-11-15T05:57:08;1.50;99.90
20155;DHT22;10238;49.556;10.956;2022-11-15T05:59:55;1.50;99.90
20155;DHT22;10238;49.556;10.956;2022-11-15T06:02:43;1.50;99.90
20155;DHT22;10238;49.556;10.956;2022-11-15T06:05:31;1.40;99.90
20155;DHT22;10238;49.556;10.956;2022-11-15T06:08:19;1.40;99.90
20155;DHT22;10238;49.556;10.956;2022-11-15T06:11:07;1.40;99.90
20155;DHT22;10238;49.556;10.956;2022-11-15T06:13:56;1.40;99.90
20155;DHT22;10238;49.556;10.956;2022-11-15T06:16:43;1.40;99.90
20155;DHT22;10238;49.556;10.956;2022-11-15T06:19:31;1.40;99.90
20155;DHT22;10238;49.556;10.956;2022-11-15T06:22:19;1.40;99.90
20155;DHT22;10238;49.556;10.956;2022-11-15T06:25:09;1.40;99.90
20155;DHT22;10238;49.556;10.956;2022-11-15T06:27:58;1.40;99.90
20155;DHT22;10238;49.556;10.956;2022-11-15T06:30:46;1.30;99.90
20155;DHT22;10238;49.556;10.956;2022-11-15T06:33:38;1.40;99.90
20155;DHT22;10238;49.556;10.956;2022-11-15T06:36:26;1.30;99.90
20155;DHT22;10238;49.556;10.956;2022-11-15T06:39:13;1.30;99.90
20155;DHT22;10238;49.556;10.956;2022-11-15T06:42:02;1.30;99.90
20155;DHT22;10238;49.556;10.956;2022-11-15T06:44:50;1.30;99.90
20155;DHT22;10238;49.556;10.956;2022-11-15T06:47:44;1.30;99.90
20155;DHT22;10238;49.556;10.956;2022-11-15T06:50:33;1.30;99.90
20155;DHT22;10238;49.556;10.956;2022-11-15T06:53:20;1.30;99.90
20155;DHT22;10238;49.556;10.956;2022-11-15T06:56:08;1.30;99.90
20155;DHT22;10238;49.556;10.956;2022-11-15T06:58:57;1.30;99.90
20155;DHT22;10238;49.556;10.956;2022-11-15T07:01:45;1.30;99.90
20155;DHT22;10238;49.556;10.956;2022-11-15T07:04:34;1.30;99.90
20155;DHT22;10238;49.556;10.956;2022-11-15T07:07:22;1.30;99.90
20155;DHT22;10238;49.556;10.956;2022-11-15T07:10:09;1.30;99.90
20155;DHT22;10238;49.556;10.956;2022-11-15T07:12:57;1.30;99.90
20155;DHT22;10238;49.556;10.956;2022-11-15T07:15:46;1.30;99.90
20155;DHT22;10238;49.556;10.956;2022-11-15T07:18:35;1.40;99.90
20155;DHT22;10238;49.556;10.956;2022-11-15T07:21:23;1.40;99.90
20155;DHT22;10238;49.556;10.956;2022-11-15T07:24:12;1.40;99.90
20155;DHT22;10238;49.556;10.956;2022-11-15T07:27:00;1.40;99.90
20155;DHT22;10238;49.556;10.956;2022-11-15T07:29:48;1.50;99.90
20155;DHT22;10238;49.556;10.956;2022-11-15T07:32:36;1.60;99.90
20155;DHT22;10238;49.556;10.956;2022-11-15T07:35:25;1.70;99.90
20155;DHT22;10238;49.556;10.956;2022-11-15T07:38:14;1.80;99.90
20155;DHT22;10238;49.556;10.956;2022-11-15T07:41:06;2.00;99.90
20155;DHT22;10238;49.556;10.956;2022-11-15T07:43:53;2.10;99.90
20155;DHT22;10238;49.556;10.956;2022-11-15T07:46:41;2.30;99.90
20155;DHT22;10238;49.556;10.956;2022-11-15T07:49:30;2.30;99.90
20155;DHT22;10238;49.556;10.956;2022-11-15T07:52:18;2.40;99.90
20155;DHT22;10238;49.556;10.956;2022-11-15T07:55:06;2.50;99.90
20155;DHT22;10238;49.556;10.956;2022-11-15T07:58:00;2.50;99.90
20155;DHT22;10238;49.556;10.956;2022-11-15T08:00:48;2.70;99.90
20155;DHT22;10238;49.556;10.956;2022-11-15T08:03:36;2.80;99.90
20155;DHT22;10238;49.556;10.956;2022-11-15T08:06:25;3.00;99.90
20155;DHT22;10238;49.556;10.956;2022-11-15T08:09:13;3.30;99.90
20155;DHT22;10238;49.556;10.956;2022-11-15T08:12:01;3.30;99.90
20155;DHT22;10238;49.556;10.956;2022-11-15T08:14:48;3.30;99.90
20155;DHT22;10238;49.556;10.956;2022-11-15T08:17:36;3.40;99.90
20155;DHT22;10238;49.556;10.956;2022-11-15T08:20:24;3.60;99.90
20155;DHT22;10238;49.556;10.956;2022-11-15T08:23:17;3.80;99.90
20155;DHT22;10238;49.556;10.956;2022-11-15T08:26:04;3.80;99.90
20155;DHT22;10238;49.556;10.956;2022-11-15T08:28:52;4.00;99.90
20155;DHT22;10238;49.556;10.956;2022-11-15T08:31:40;4.40;99.90
20155;DHT22;10238;49.556;10.956;2022-11-15T08:34:27;4.70;99.90
20155;DHT22;10238;49.556;10.956;2022-11-15T08:37:15;4.70;99.90
20155;DHT22;10238;49.556;10.956;2022-11-15T08:40:05;4.90;99.90
20155;DHT22;10238;49.556;10.956;2022-11-15T08:42:53;5.20;99.90
20155;DHT22;10238;49.556;10.956;2022-11-15T08:45:40;5.30;99.90
20155;DHT22;10238;49.556;10.956;2022-11-15T08:48:29;5.50;99.90
20155;DHT22;10238;49.556;10.956;2022-11-15T08:51:17;5.60;99.90
20155;DHT22;10238;49.556;10.956;2022-11-15T08:54:06;5.80;99.90
20155;DHT22;10238;49.556;10.956;2022-11-15T08:56:55;5.80;99.90
20155;DHT22;10238;49.556;10.956;2022-11-15T08:59:42;5.80;99.90
20155;DHT22;10238;49.556;10.956;2022-11-15T09:02:30;6.10;99.90
20155;DHT22;10238;49.556;10.956;2022-11-15T09:05:18;6.80;99.90
20155;DHT22;10238;49.556;10.956;2022-11-15T09:08:05;6.70;99.90
20155;DHT22;10238;49.556;10.956;2022-11-15T09:11:13;6.90;99.90
20155;DHT22;10238;49.556;10.956;2022-11-15T09:14:03;7.20;99.90
20155;DHT22;10238;49.556;10.956;2022-11-15T09:16:51;7.40;99.90
20155;DHT22;10238;49.556;10.956;2022-11-15T09:19:38;7.40;99.90
20155;DHT22;10238;49.556;10.956;2022-11-15T09:22:26;7.40;99.90
20155;DHT22;10238;49.556;10.956;2022-11-15T09:25:14;7.50;99.90
20155;DHT22;10238;49.556;10.956;2022-11-15T09:28:06;7.40;99.90
20155;DHT22;10238;49.556;10.956;2022-11-15T09:30:57;7.50;99.90
20155;DHT22;10238;49.556;10.956;2022-11-15T09:33:46;7.40;99.90
20155;DHT22;10238;49.556;10.956;2022-11-15T09:36:34;7.50;99.90
20155;DHT22;10238;49.556;10.956;2022-11-15T09:39:22;7.60;99.90
20155;DHT22;10238;49.556;10.956;2022-11-15T09:42:32;8.00;99.90
20155;DHT22;10238;49.556;10.956;2022-11-15T09:45:37;8.20;99.90
20155;DHT22;10238;49.556;10.956;2022-11-15T09:48:49;8.70;99.90
20155;DHT22;10238;49.556;10.956;2022-11-15T09:51:41;8.90;99.90
20155;DHT22;10238;49.556;10.956;2022-11-15T09:54:35;9.10;99.90
20155;DHT22;10238;49.556;10.956;2022-11-15T09:57:45;8.90;99.90
20155;DHT22;10238;49.556;10.956;2022-11-15T10:00:44;9.00;99.90
20155;DHT22;10238;49.556;10.956;2022-11-15T10:03:39;9.10;99.90
20155;DHT22;10238;49.556;10.956;2022-11-15T10:06:33;9.30;99.90
20155;DHT22;10238;49.556;10.956;2022-11-15T10:09:26;9.40;99.90
20155;DHT22;10238;49.556;10.956;2022-11-15T10:12:20;9.70;99.90
20155;DHT22;10238;49.556;10.956;2022-11-15T10:15:13;9.90;99.90
20155;DHT22;10238;49.556;10.956;2022-11-15T10:18:08;10.10;99.90
20155;DHT22;10238;49.556;10.956;2022-11-15T10:21:16;10.40;99.90
20155;DHT22;10238;49.556;10.956;2022-11-15T10:24:10;10.60;99.90
20155;DHT22;10238;49.556;10.956;2022-11-15T10:26:59;10.60;99.90
20155;DHT22;10238;49.556;10.956;2022-11-15T10:29:49;10.70;99.90
20155;DHT22;10238;49.556;10.956;2022-11-15T10:32:37;10.70;99.90
20155;DHT22;10238;49.556;10.956;2022-11-15T10:35:29;11.00;99.90
20155;DHT22;10238;49.556;10.956;2022-11-15T10:38:19;11.00;99.90
20155;DHT22;10238;49.556;10.956;2022-11-15T10:41:07;11.10;99.90
20155;DHT22;10238;49.556;10.956;2022-11-15T10:44:08;11.20;99.90
20155;DHT22;10238;49.556;10.956;2022-11-15T10:47:27;11.40;99.90
20155;DHT22;10238;49.556;10.956;2022-11-15T10:50:29;11.50;99.90
20155;DHT22;10238;49.556;10.956;2022-11-15T10:53:31;11.60;99.90
20155;DHT22;10238;49.556;10.956;2022-11-15T10:56:25;11.60;99.90
20155;DHT22;10238;49.556;10.956;2022-11-15T10:59:17;11.60;99.90
20155;DHT22;10238;49.556;10.956;2022-11-15T11:02:45;11.70;99.90
20155;DHT22;10238;49.556;10.956;2022-11-15T11:05:44;12.00;99.90
20155;DHT22;10238;49.556;10.956;2022-11-15T11:08:34;12.20;99.90
20155;DHT22;10238;49.556;10.956;2022-11-15T11:11:22;12.30;99.90
20155;DHT22;10238;49.556;10.956;2022-11-15T11:14:12;12.40;99.90
20155;DHT22;10238;49.556;10.956;2022-11-15T11:17:05;12.50;99.90
20155;DHT22;10238;49.556;10.956;2022-11-15T11:20:02;12.60;99.90
20155;DHT22;10238;49.556;10.956;2022-11-15T11:23:03;12.70;99.90
20155;DHT22;10238;49.556;10.956;2022-11-15T11:26:14;12.90;99.90
20155;DHT22;10238;49.556;10.956;2022-11-15T11:29:23;13.00;99.90
20155;DHT22;10238;49.556;10.956;2022-11-15T11:32:35;13.10;99.90
20155;DHT22;10238;49.556;10.956;2022-11-15T11:35:48;13.30;99.90
20155;DHT22;10238;49.556;10.956;2022-11-15T11:38:56;13.40;99.90
20155;DHT22;10238;49.556;10.956;2022-11-15T11:42:03;13.60;99.90
20155;DHT22;10238;49.556;10.956;2022-11-15T11:45:05;13.70;99.90
20155;DHT22;10238;49.556;10.956;2022-11-15T11:48:12;13.80;99.90
20155;DHT22;10238;49.556;10.956;2022-11-15T11:51:05;13.80;99.90
20155;DHT22;10238;49.556;10.956;2022-11-15T11:54:04;14.00;99.90
20155;DHT22;10238;49.556;10.956;2022-11-15T11:57:00;14.10;99.90
20155;DHT22;10238;49.556;10.956;2022-11-15T11:59:58;14.30;99.90
20155;DHT22;10238;49.556;10.956;2022-11-15T12:03:02;14.50;99.90
20155;DHT22;10238;49.556;10.956;2022-11-15T12:05:57;14.60;99.90
20155;DHT22;10238;49.556;10.956;2022-11-15T12:08:58;14.60;99.90
20155;DHT22;10238;49.556;10.956;2022-11-15T12:11:54;14.60;99.90
20155;DHT22;10238;49.556;10.956;2022-11-15T12:14:51;14.80;99.90
